sensor_id;sensor_type;location;lat;lon;timestamp;P1;durP1;ratioP1;P2;durP2;ratioP2
52730;SDS011;38624;53.242;6.974;2023-12-20T00:01:36;13.05;;;2.55;;
52730;SDS011;38624;53.242;6.974;2023-12-20T00:04:02;15.80;;;2.50;;
52730;SDS011;38624;53.242;6.974;2023-12-20T00:06:29;17.60;;;2.63;;
52730;SDS011;38624;53.242;6.974;2023-12-20T00:08:55;16.08;;;2.20;;
52730;SDS011;38624;53.242;6.974;2023-12-20T00:11:20;12.27;;;2.15;;
52730;SDS011;38624;53.242;6.974;2023-12-20T00:13:46;16.85;;;2.10;;
52730;SDS011;38624;53.242;6.974;2023-12-20T00:16:12;12.10;;;2.30;;
52730;SDS011;38624;53.242;6.974;2023-12-20T00:18:38;11.50;;;1.93;;
52730;SDS011;38624;53.242;6.974;2023-12-20T00:21:03;13.65;;;2.30;;
52730;SDS011;38624;53.242;6.974;2023-12-20T00:23:29;12.57;;;2.05;;
52730;SDS011;38624;53.242;6.974;2023-12-20T00:25:55;14.88;;;2.58;;
52730;SDS011;38624;53.242;6.974;2023-12-20T00:28:21;18.90;;;2.20;;
52730;SDS011;38624;53.242;6.974;2023-12-20T00:30:47;14.05;;;2.22;;
52730;SDS011;38624;53.242;6.974;2023-12-20T00:33:13;15.15;;;2.15;;
52730;SDS011;38624;53.242;6.974;2023-12-20T00:35:38;17.55;;;2.13;;
52730;SDS011;38624;53.242;6.974;2023-12-20T00:38:04;8.43;;;1.70;;
52730;SDS011;38624;53.242;6.974;2023-12-20T00:40:32;13.27;;;2.08;;
52730;SDS011;38624;53.242;6.974;2023-12-20T00:42:58;10.60;;;2.13;;
52730;SDS011;38624;53.242;6.974;2023-12-20T00:45:23;18.35;;;2.25;;
52730;SDS011;38624;53.242;6.974;2023-12-20T00:47:49;18.88;;;2.17;;
52730;SDS011;38624;53.242;6.974;2023-12-20T00:50:15;9.68;;;1.90;;
52730;SDS011;38624;53.242;6.974;2023-12-20T00:52:41;14.35;;;1.83;;
52730;SDS011;38624;53.242;6.974;2023-12-20T00:55:07;14.73;;;2.00;;
52730;SDS011;38624;53.242;6.974;2023-12-20T00:57:33;10.75;;;2.40;;
52730;SDS011;38624;53.242;6.974;2023-12-20T00:59:59;13.83;;;2.30;;
52730;SDS011;38624;53.242;6.974;2023-12-20T01:02:25;14.97;;;2.53;;
52730;SDS011;38624;53.242;6.974;2023-12-20T01:04:50;11.77;;;1.95;;
52730;SDS011;38624;53.242;6.974;2023-12-20T01:07:16;12.57;;;2.92;;
52730;SDS011;38624;53.242;6.974;2023-12-20T01:09:42;13.88;;;2.35;;
52730;SDS011;38624;53.242;6.974;2023-12-20T01:12:07;18.33;;;2.47;;
52730;SDS011;38624;53.242;6.974;2023-12-20T01:14:33;15.88;;;2.20;;
52730;SDS011;38624;53.242;6.974;2023-12-20T01:16:59;11.90;;;1.77;;
52730;SDS011;38624;53.242;6.974;2023-12-20T01:19:25;9.38;;;2.28;;
52730;SDS011;38624;53.242;6.974;2023-12-20T01:21:52;16.52;;;2.53;;
52730;SDS011;38624;53.242;6.974;2023-12-20T01:24:18;9.65;;;2.17;;
52730;SDS011;38624;53.242;6.974;2023-12-20T01:26:44;13.27;;;1.95;;
52730;SDS011;38624;53.242;6.974;2023-12-20T01:29:09;16.63;;;3.42;;
52730;SDS011;38624;53.242;6.974;2023-12-20T01:31:36;11.83;;;2.83;;
52730;SDS011;38624;53.242;6.974;2023-12-20T01:34:01;10.25;;;2.13;;
52730;SDS011;38624;53.242;6.974;2023-12-20T01:36:29;9.55;;;2.03;;
52730;SDS011;38624;53.242;6.974;2023-12-20T01:38:55;18.80;;;2.65;;
52730;SDS011;38624;53.242;6.974;2023-12-20T01:41:21;12.88;;;2.60;;
52730;SDS011;38624;53.242;6.974;2023-12-20T01:43:46;10.20;;;2.53;;
52730;SDS011;38624;53.242;6.974;2023-12-20T01:46:12;17.02;;;2.47;;
52730;SDS011;38624;53.242;6.974;2023-12-20T01:48:38;12.63;;;2.20;;
52730;SDS011;38624;53.242;6.974;2023-12-20T01:51:04;12.15;;;2.08;;
52730;SDS011;38624;53.242;6.974;2023-12-20T01:53:30;12.98;;;2.42;;
52730;SDS011;38624;53.242;6.974;2023-12-20T01:55:57;9.18;;;1.77;;
52730;SDS011;38624;53.242;6.974;2023-12-20T01:58:24;6.47;;;1.30;;
52730;SDS011;38624;53.242;6.974;2023-12-20T02:00:50;9.70;;;2.20;;
52730;SDS011;38624;53.242;6.974;2023-12-20T02:03:17;11.95;;;2.38;;
52730;SDS011;38624;53.242;6.974;2023-12-20T02:05:44;12.43;;;2.33;;
52730;SDS011;38624;53.242;6.974;2023-12-20T02:08:10;7.63;;;1.98;;
52730;SDS011;38624;53.242;6.974;2023-12-20T02:10:36;11.95;;;2.30;;
52730;SDS011;38624;53.242;6.974;2023-12-20T02:13:03;11.15;;;2.42;;
52730;SDS011;38624;53.242;6.974;2023-12-20T02:15:29;8.70;;;1.50;;
52730;SDS011;38624;53.242;6.974;2023-12-20T02:17:55;15.45;;;2.67;;
52730;SDS011;38624;53.242;6.974;2023-12-20T02:20:21;16.77;;;3.00;;
52730;SDS011;38624;53.242;6.974;2023-12-20T02:22:47;14.48;;;2.65;;
52730;SDS011;38624;53.242;6.974;2023-12-20T02:25:13;14.82;;;2.20;;
52730;SDS011;38624;53.242;6.974;2023-12-20T02:27:39;14.98;;;2.30;;
52730;SDS011;38624;53.242;6.974;2023-12-20T02:30:05;11.23;;;2.53;;
52730;SDS011;38624;53.242;6.974;2023-12-20T02:32:31;14.52;;;2.65;;
52730;SDS011;38624;53.242;6.974;2023-12-20T02:34:57;8.80;;;2.05;;
52730;SDS011;38624;53.242;6.974;2023-12-20T02:37:23;11.98;;;2.03;;
52730;SDS011;38624;53.242;6.974;2023-12-20T02:39:49;12.07;;;2.15;;
52730;SDS011;38624;53.242;6.974;2023-12-20T02:42:15;9.23;;;2.00;;
52730;SDS011;38624;53.242;6.974;2023-12-20T02:44:41;12.90;;;2.00;;
52730;SDS011;38624;53.242;6.974;2023-12-20T02:47:07;13.23;;;1.98;;
52730;SDS011;38624;53.242;6.974;2023-12-20T02:49:32;7.85;;;1.80;;
52730;SDS011;38624;53.242;6.974;2023-12-20T02:51:58;10.68;;;1.48;;
52730;SDS011;38624;53.242;6.974;2023-12-20T02:54:24;7.43;;;1.95;;
52730;SDS011;38624;53.242;6.974;2023-12-20T02:56:50;10.98;;;2.70;;
52730;SDS011;38624;53.242;6.974;2023-12-20T02:59:15;15.10;;;2.40;;
52730;SDS011;38624;53.242;6.974;2023-12-20T03:01:42;11.90;;;1.88;;
52730;SDS011;38624;53.242;6.974;2023-12-20T03:04:09;9.48;;;2.30;;
52730;SDS011;38624;53.242;6.974;2023-12-20T03:06:35;13.18;;;2.95;;
52730;SDS011;38624;53.242;6.974;2023-12-20T03:09:01;16.23;;;2.83;;
52730;SDS011;38624;53.242;6.974;2023-12-20T03:11:27;6.68;;;1.60;;
52730;SDS011;38624;53.242;6.974;2023-12-20T03:13:53;12.05;;;2.80;;
52730;SDS011;38624;53.242;6.974;2023-12-20T03:16:20;14.77;;;2.63;;
52730;SDS011;38624;53.242;6.974;2023-12-20T03:18:45;14.95;;;2.30;;
52730;SDS011;38624;53.242;6.974;2023-12-20T03:21:11;13.30;;;1.90;;
52730;SDS011;38624;53.242;6.974;2023-12-20T03:23:37;8.38;;;2.05;;
52730;SDS011;38624;53.242;6.974;2023-12-20T03:26:03;10.40;;;2.00;;
52730;SDS011;38624;53.242;6.974;2023-12-20T03:28:31;21.88;;;3.55;;
52730;SDS011;38624;53.242;6.974;2023-12-20T03:30:57;15.73;;;2.80;;
52730;SDS011;38624;53.242;6.974;2023-12-20T03:33:23;18.67;;;3.03;;
52730;SDS011;38624;53.242;6.974;2023-12-20T03:35:48;21.17;;;2.97;;
52730;SDS011;38624;53.242;6.974;2023-12-20T03:38:14;21.38;;;3.80;;
52730;SDS011;38624;53.242;6.974;2023-12-20T03:40:40;25.20;;;3.45;;
52730;SDS011;38624;53.242;6.974;2023-12-20T03:43:06;18.08;;;2.97;;
52730;SDS011;38624;53.242;6.974;2023-12-20T03:45:31;22.05;;;2.90;;
52730;SDS011;38624;53.242;6.974;2023-12-20T03:47:57;20.30;;;4.00;;
52730;SDS011;38624;53.242;6.974;2023-12-20T03:50:23;16.40;;;3.00;;
52730;SDS011;38624;53.242;6.974;2023-12-20T03:52:48;23.52;;;3.20;;
52730;SDS011;38624;53.242;6.974;2023-12-20T03:55:14;16.02;;;2.25;;
52730;SDS011;38624;53.242;6.974;2023-12-20T03:57:40;15.13;;;2.83;;
52730;SDS011;38624;53.242;6.974;2023-12-20T04:00:09;15.75;;;2.65;;
52730;SDS011;38624;53.242;6.974;2023-12-20T04:02:36;19.02;;;2.60;;
52730;SDS011;38624;53.242;6.974;2023-12-20T04:05:02;9.50;;;2.40;;
52730;SDS011;38624;53.242;6.974;2023-12-20T04:07:29;10.90;;;2.42;;
52730;SDS011;38624;53.242;6.974;2023-12-20T04:09:54;7.72;;;1.88;;
52730;SDS011;38624;53.242;6.974;2023-12-20T04:12:20;13.07;;;3.05;;
52730;SDS011;38624;53.242;6.974;2023-12-20T04:14:46;13.65;;;2.53;;
52730;SDS011;38624;53.242;6.974;2023-12-20T04:17:11;13.93;;;2.10;;
52730;SDS011;38624;53.242;6.974;2023-12-20T04:19:37;9.73;;;2.08;;
52730;SDS011;38624;53.242;6.974;2023-12-20T04:22:03;11.82;;;2.72;;
52730;SDS011;38624;53.242;6.974;2023-12-20T04:24:29;17.65;;;3.55;;
52730;SDS011;38624;53.242;6.974;2023-12-20T04:26:55;19.73;;;3.35;;
52730;SDS011;38624;53.242;6.974;2023-12-20T04:29:20;17.30;;;3.42;;
52730;SDS011;38624;53.242;6.974;2023-12-20T04:31:46;19.65;;;3.10;;
52730;SDS011;38624;53.242;6.974;2023-12-20T04:34:12;27.40;;;3.33;;
52730;SDS011;38624;53.242;6.974;2023-12-20T04:36:37;24.23;;;3.58;;
52730;SDS011;38624;53.242;6.974;2023-12-20T04:39:03;12.25;;;2.78;;
52730;SDS011;38624;53.242;6.974;2023-12-20T04:41:29;22.37;;;4.33;;
52730;SDS011;38624;53.242;6.974;2023-12-20T04:43:55;19.13;;;3.03;;
52730;SDS011;38624;53.242;6.974;2023-12-20T04:46:21;20.55;;;3.28;;
52730;SDS011;38624;53.242;6.974;2023-12-20T04:48:46;22.90;;;4.05;;
52730;SDS011;38624;53.242;6.974;2023-12-20T04:51:12;30.35;;;4.30;;
52730;SDS011;38624;53.242;6.974;2023-12-20T04:53:38;27.45;;;3.83;;
52730;SDS011;38624;53.242;6.974;2023-12-20T04:56:04;17.75;;;3.78;;
52730;SDS011;38624;53.242;6.974;2023-12-20T04:58:29;24.58;;;3.67;;
52730;SDS011;38624;53.242;6.974;2023-12-20T05:00:55;21.90;;;3.90;;
52730;SDS011;38624;53.242;6.974;2023-12-20T05:03:21;21.63;;;3.65;;
52730;SDS011;38624;53.242;6.974;2023-12-20T05:05:46;28.15;;;5.32;;
52730;SDS011;38624;53.242;6.974;2023-12-20T05:08:13;22.50;;;4.07;;
52730;SDS011;38624;53.242;6.974;2023-12-20T05:10:39;18.40;;;3.05;;
52730;SDS011;38624;53.242;6.974;2023-12-20T05:13:05;19.48;;;3.25;;
52730;SDS011;38624;53.242;6.974;2023-12-20T05:15:31;22.58;;;3.50;;
52730;SDS011;38624;53.242;6.974;2023-12-20T05:17:56;13.80;;;2.75;;
52730;SDS011;38624;53.242;6.974;2023-12-20T05:20:22;20.25;;;3.58;;
52730;SDS011;38624;53.242;6.974;2023-12-20T05:22:48;23.63;;;3.42;;
52730;SDS011;38624;53.242;6.974;2023-12-20T05:25:14;17.05;;;3.08;;
52730;SDS011;38624;53.242;6.974;2023-12-20T05:27:39;21.45;;;3.35;;
52730;SDS011;38624;53.242;6.974;2023-12-20T05:30:05;15.02;;;3.15;;
52730;SDS011;38624;53.242;6.974;2023-12-20T05:32:31;23.42;;;4.50;;
52730;SDS011;38624;53.242;6.974;2023-12-20T05:34:57;25.23;;;3.53;;
52730;SDS011;38624;53.242;6.974;2023-12-20T05:37:23;12.98;;;2.83;;
52730;SDS011;38624;53.242;6.974;2023-12-20T05:39:49;23.13;;;3.35;;
52730;SDS011;38624;53.242;6.974;2023-12-20T05:42:14;22.92;;;3.53;;
52730;SDS011;38624;53.242;6.974;2023-12-20T05:44:40;26.70;;;4.35;;
52730;SDS011;38624;53.242;6.974;2023-12-20T05:47:06;11.82;;;3.00;;
52730;SDS011;38624;53.242;6.974;2023-12-20T05:49:31;16.40;;;3.28;;
52730;SDS011;38624;53.242;6.974;2023-12-20T05:51:58;20.77;;;3.83;;
52730;SDS011;38624;53.242;6.974;2023-12-20T05:54:23;22.70;;;3.47;;
52730;SDS011;38624;53.242;6.974;2023-12-20T05:56:49;17.45;;;3.70;;
52730;SDS011;38624;53.242;6.974;2023-12-20T05:59:15;19.52;;;3.95;;
52730;SDS011;38624;53.242;6.974;2023-12-20T06:01:41;20.60;;;3.42;;
52730;SDS011;38624;53.242;6.974;2023-12-20T06:04:07;16.77;;;3.30;;
52730;SDS011;38624;53.242;6.974;2023-12-20T06:06:33;19.95;;;3.55;;
52730;SDS011;38624;53.242;6.974;2023-12-20T06:08:58;29.63;;;3.90;;
52730;SDS011;38624;53.242;6.974;2023-12-20T06:11:24;20.73;;;3.75;;
52730;SDS011;38624;53.242;6.974;2023-12-20T06:13:50;21.38;;;3.83;;
52730;SDS011;38624;53.242;6.974;2023-12-20T06:16:18;13.52;;;2.53;;
52730;SDS011;38624;53.242;6.974;2023-12-20T06:18:44;14.23;;;2.83;;
52730;SDS011;38624;53.242;6.974;2023-12-20T06:21:10;16.30;;;4.32;;
52730;SDS011;38624;53.242;6.974;2023-12-20T06:23:38;22.98;;;3.72;;
52730;SDS011;38624;53.242;6.974;2023-12-20T06:26:04;15.20;;;3.63;;
52730;SDS011;38624;53.242;6.974;2023-12-20T06:28:30;28.35;;;4.15;;
52730;SDS011;38624;53.242;6.974;2023-12-20T06:30:56;10.82;;;2.42;;
52730;SDS011;38624;53.242;6.974;2023-12-20T06:33:22;12.07;;;3.03;;
52730;SDS011;38624;53.242;6.974;2023-12-20T06:35:49;28.90;;;3.38;;
52730;SDS011;38624;53.242;6.974;2023-12-20T06:38:14;20.45;;;4.07;;
52730;SDS011;38624;53.242;6.974;2023-12-20T06:40:40;27.80;;;3.78;;
52730;SDS011;38624;53.242;6.974;2023-12-20T06:45:33;18.20;;;3.00;;
52730;SDS011;38624;53.242;6.974;2023-12-20T06:47:59;14.95;;;3.05;;
52730;SDS011;38624;53.242;6.974;2023-12-20T06:50:25;17.65;;;3.38;;
52730;SDS011;38624;53.242;6.974;2023-12-20T06:52:51;21.48;;;3.90;;
52730;SDS011;38624;53.242;6.974;2023-12-20T06:55:17;21.65;;;4.15;;
52730;SDS011;38624;53.242;6.974;2023-12-20T06:57:43;18.08;;;3.10;;
52730;SDS011;38624;53.242;6.974;2023-12-20T07:00:10;18.35;;;3.42;;
52730;SDS011;38624;53.242;6.974;2023-12-20T07:02:36;18.42;;;3.53;;
52730;SDS011;38624;53.242;6.974;2023-12-20T07:05:02;26.85;;;4.32;;
52730;SDS011;38624;53.242;6.974;2023-12-20T07:07:30;22.33;;;3.60;;
52730;SDS011;38624;53.242;6.974;2023-12-20T07:09:56;23.13;;;3.67;;
52730;SDS011;38624;53.242;6.974;2023-12-20T07:12:22;16.00;;;4.20;;
52730;SDS011;38624;53.242;6.974;2023-12-20T07:14:47;19.33;;;3.22;;
52730;SDS011;38624;53.242;6.974;2023-12-20T07:17:13;21.35;;;3.63;;
52730;SDS011;38624;53.242;6.974;2023-12-20T07:19:40;28.02;;;4.30;;
52730;SDS011;38624;53.242;6.974;2023-12-20T07:22:08;15.95;;;3.47;;
52730;SDS011;38624;53.242;6.974;2023-12-20T07:24:34;14.98;;;2.90;;
52730;SDS011;38624;53.242;6.974;2023-12-20T07:27:00;12.35;;;2.80;;
52730;SDS011;38624;53.242;6.974;2023-12-20T07:29:27;13.32;;;3.03;;
52730;SDS011;38624;53.242;6.974;2023-12-20T07:31:52;18.60;;;3.25;;
52730;SDS011;38624;53.242;6.974;2023-12-20T07:34:19;16.67;;;3.75;;
52730;SDS011;38624;53.242;6.974;2023-12-20T07:36:45;18.92;;;4.75;;
52730;SDS011;38624;53.242;6.974;2023-12-20T07:39:12;20.05;;;3.47;;
52730;SDS011;38624;53.242;6.974;2023-12-20T07:41:38;19.17;;;3.30;;
52730;SDS011;38624;53.242;6.974;2023-12-20T07:44:04;18.02;;;3.55;;
52730;SDS011;38624;53.242;6.974;2023-12-20T07:46:33;27.50;;;7.05;;
52730;SDS011;38624;53.242;6.974;2023-12-20T07:49:01;22.38;;;4.15;;
52730;SDS011;38624;53.242;6.974;2023-12-20T07:51:27;20.98;;;4.72;;
52730;SDS011;38624;53.242;6.974;2023-12-20T07:53:53;26.20;;;4.50;;
52730;SDS011;38624;53.242;6.974;2023-12-20T07:56:19;31.40;;;9.93;;
52730;SDS011;38624;53.242;6.974;2023-12-20T07:58:45;23.30;;;3.92;;
52730;SDS011;38624;53.242;6.974;2023-12-20T08:01:13;17.55;;;3.88;;
52730;SDS011;38624;53.242;6.974;2023-12-20T08:03:38;20.90;;;4.13;;
52730;SDS011;38624;53.242;6.974;2023-12-20T08:06:04;23.50;;;3.95;;
52730;SDS011;38624;53.242;6.974;2023-12-20T08:08:30;17.67;;;3.15;;
52730;SDS011;38624;53.242;6.974;2023-12-20T08:10:56;24.05;;;7.43;;
52730;SDS011;38624;53.242;6.974;2023-12-20T08:13:24;21.02;;;3.33;;
52730;SDS011;38624;53.242;6.974;2023-12-20T08:15:51;15.93;;;2.83;;
52730;SDS011;38624;53.242;6.974;2023-12-20T08:18:17;18.50;;;3.55;;
52730;SDS011;38624;53.242;6.974;2023-12-20T08:20:43;15.90;;;3.33;;
52730;SDS011;38624;53.242;6.974;2023-12-20T08:23:09;27.88;;;3.78;;
52730;SDS011;38624;53.242;6.974;2023-12-20T08:25:35;20.15;;;3.45;;
52730;SDS011;38624;53.242;6.974;2023-12-20T08:28:01;21.67;;;3.28;;
52730;SDS011;38624;53.242;6.974;2023-12-20T08:30:28;21.90;;;3.65;;
52730;SDS011;38624;53.242;6.974;2023-12-20T08:32:54;13.02;;;3.78;;
52730;SDS011;38624;53.242;6.974;2023-12-20T08:35:20;18.73;;;3.15;;
52730;SDS011;38624;53.242;6.974;2023-12-20T08:37:46;25.42;;;4.85;;
52730;SDS011;38624;53.242;6.974;2023-12-20T08:40:12;21.00;;;4.32;;
52730;SDS011;38624;53.242;6.974;2023-12-20T08:42:38;22.25;;;3.97;;
52730;SDS011;38624;53.242;6.974;2023-12-20T08:45:04;14.85;;;3.30;;
52730;SDS011;38624;53.242;6.974;2023-12-20T08:47:30;6.57;;;1.20;;
52730;SDS011;38624;53.242;6.974;2023-12-20T08:49:58;4.30;;;1.20;;
52730;SDS011;38624;53.242;6.974;2023-12-20T08:52:25;4.82;;;1.23;;
52730;SDS011;38624;53.242;6.974;2023-12-20T08:57:21;4.28;;;0.98;;
52730;SDS011;38624;53.242;6.974;2023-12-20T08:59:49;2.33;;;1.00;;
52730;SDS011;38624;53.242;6.974;2023-12-20T09:02:15;5.75;;;1.38;;
52730;SDS011;38624;53.242;6.974;2023-12-20T09:04:42;10.27;;;1.60;;
52730;SDS011;38624;53.242;6.974;2023-12-20T09:07:20;9.18;;;2.42;;
52730;SDS011;38624;53.242;6.974;2023-12-20T09:09:50;12.43;;;1.50;;
52730;SDS011;38624;53.242;6.974;2023-12-20T09:12:19;8.63;;;1.83;;
52730;SDS011;38624;53.242;6.974;2023-12-20T09:14:46;11.85;;;1.55;;
52730;SDS011;38624;53.242;6.974;2023-12-20T09:17:12;10.85;;;1.80;;
52730;SDS011;38624;53.242;6.974;2023-12-20T09:19:38;12.18;;;1.73;;
52730;SDS011;38624;53.242;6.974;2023-12-20T09:22:04;11.50;;;1.63;;
52730;SDS011;38624;53.242;6.974;2023-12-20T09:24:31;7.15;;;1.23;;
52730;SDS011;38624;53.242;6.974;2023-12-20T09:26:57;8.70;;;1.70;;
52730;SDS011;38624;53.242;6.974;2023-12-20T09:29:23;4.55;;;1.23;;
52730;SDS011;38624;53.242;6.974;2023-12-20T09:31:49;10.50;;;1.60;;
52730;SDS011;38624;53.242;6.974;2023-12-20T09:34:15;12.97;;;1.30;;
52730;SDS011;38624;53.242;6.974;2023-12-20T09:36:42;10.40;;;1.75;;
52730;SDS011;38624;53.242;6.974;2023-12-20T09:39:14;4.97;;;1.10;;
52730;SDS011;38624;53.242;6.974;2023-12-20T09:41:44;8.80;;;1.20;;
52730;SDS011;38624;53.242;6.974;2023-12-20T09:44:18;12.43;;;2.00;;
52730;SDS011;38624;53.242;6.974;2023-12-20T09:46:45;5.63;;;1.70;;
52730;SDS011;38624;53.242;6.974;2023-12-20T09:49:17;9.20;;;1.42;;
52730;SDS011;38624;53.242;6.974;2023-12-20T09:51:44;5.20;;;1.05;;
52730;SDS011;38624;53.242;6.974;2023-12-20T09:54:12;9.30;;;1.40;;
52730;SDS011;38624;53.242;6.974;2023-12-20T09:56:42;12.27;;;1.67;;
52730;SDS011;38624;53.242;6.974;2023-12-20T09:59:08;14.20;;;2.00;;
52730;SDS011;38624;53.242;6.974;2023-12-20T10:01:35;10.33;;;2.03;;
52730;SDS011;38624;53.242;6.974;2023-12-20T10:04:02;12.15;;;1.73;;
52730;SDS011;38624;53.242;6.974;2023-12-20T10:06:43;12.73;;;1.77;;
52730;SDS011;38624;53.242;6.974;2023-12-20T10:09:10;8.32;;;1.33;;
52730;SDS011;38624;53.242;6.974;2023-12-20T10:11:37;10.25;;;1.88;;
52730;SDS011;38624;53.242;6.974;2023-12-20T10:14:03;11.30;;;1.83;;
52730;SDS011;38624;53.242;6.974;2023-12-20T10:16:30;11.52;;;1.95;;
52730;SDS011;38624;53.242;6.974;2023-12-20T10:18:57;7.27;;;1.40;;
52730;SDS011;38624;53.242;6.974;2023-12-20T10:21:24;11.45;;;1.23;;
52730;SDS011;38624;53.242;6.974;2023-12-20T10:23:51;15.45;;;2.05;;
52730;SDS011;38624;53.242;6.974;2023-12-20T10:26:22;13.83;;;1.93;;
52730;SDS011;38624;53.242;6.974;2023-12-20T10:28:56;12.43;;;2.00;;
52730;SDS011;38624;53.242;6.974;2023-12-20T10:33:58;7.07;;;1.33;;
52730;SDS011;38624;53.242;6.974;2023-12-20T10:36:29;5.68;;;1.98;;
52730;SDS011;38624;53.242;6.974;2023-12-20T10:38:56;17.48;;;1.92;;
52730;SDS011;38624;53.242;6.974;2023-12-20T10:41:27;9.30;;;1.38;;
52730;SDS011;38624;53.242;6.974;2023-12-20T10:44:03;14.57;;;1.87;;
52730;SDS011;38624;53.242;6.974;2023-12-20T10:46:33;13.27;;;2.45;;
52730;SDS011;38624;53.242;6.974;2023-12-20T10:48:59;17.10;;;1.83;;
52730;SDS011;38624;53.242;6.974;2023-12-20T10:51:27;11.98;;;1.83;;
52730;SDS011;38624;53.242;6.974;2023-12-20T10:53:55;17.00;;;2.17;;
52730;SDS011;38624;53.242;6.974;2023-12-20T10:56:21;10.02;;;1.83;;
52730;SDS011;38624;53.242;6.974;2023-12-20T10:58:50;16.77;;;1.70;;
52730;SDS011;38624;53.242;6.974;2023-12-20T11:01:16;9.05;;;1.67;;
52730;SDS011;38624;53.242;6.974;2023-12-20T11:11:56;15.93;;;2.55;;
52730;SDS011;38624;53.242;6.974;2023-12-20T11:14:42;17.67;;;1.63;;
52730;SDS011;38624;53.242;6.974;2023-12-20T11:17:13;20.42;;;2.92;;
52730;SDS011;38624;53.242;6.974;2023-12-20T11:22:27;11.00;;;1.88;;
52730;SDS011;38624;53.242;6.974;2023-12-20T11:24:58;12.52;;;3.55;;
52730;SDS011;38624;53.242;6.974;2023-12-20T11:27:36;14.73;;;2.50;;
52730;SDS011;38624;53.242;6.974;2023-12-20T11:30:05;18.65;;;3.10;;
52730;SDS011;38624;53.242;6.974;2023-12-20T11:32:33;14.27;;;2.57;;
52730;SDS011;38624;53.242;6.974;2023-12-20T11:35:00;20.05;;;2.85;;
52730;SDS011;38624;53.242;6.974;2023-12-20T11:37:42;11.43;;;1.85;;
52730;SDS011;38624;53.242;6.974;2023-12-20T11:40:11;10.00;;;3.42;;
52730;SDS011;38624;53.242;6.974;2023-12-20T11:42:40;16.70;;;2.40;;
52730;SDS011;38624;53.242;6.974;2023-12-20T11:45:10;20.80;;;3.42;;
52730;SDS011;38624;53.242;6.974;2023-12-20T11:47:46;16.48;;;2.65;;
52730;SDS011;38624;53.242;6.974;2023-12-20T11:50:15;13.80;;;1.98;;
52730;SDS011;38624;53.242;6.974;2023-12-20T11:52:41;14.48;;;2.88;;
52730;SDS011;38624;53.242;6.974;2023-12-20T11:55:07;14.32;;;2.55;;
52730;SDS011;38624;53.242;6.974;2023-12-20T11:57:32;17.20;;;2.15;;
52730;SDS011;38624;53.242;6.974;2023-12-20T11:59:58;18.45;;;2.65;;
52730;SDS011;38624;53.242;6.974;2023-12-20T12:02:24;13.85;;;1.90;;
52730;SDS011;38624;53.242;6.974;2023-12-20T12:04:50;25.13;;;4.20;;
52730;SDS011;38624;53.242;6.974;2023-12-20T12:07:16;14.98;;;2.63;;
52730;SDS011;38624;53.242;6.974;2023-12-20T12:09:42;19.00;;;2.60;;
52730;SDS011;38624;53.242;6.974;2023-12-20T12:12:09;14.63;;;2.20;;
52730;SDS011;38624;53.242;6.974;2023-12-20T12:14:35;27.45;;;3.13;;
52730;SDS011;38624;53.242;6.974;2023-12-20T12:17:12;13.35;;;2.05;;
52730;SDS011;38624;53.242;6.974;2023-12-20T12:19:39;13.30;;;2.33;;
52730;SDS011;38624;53.242;6.974;2023-12-20T12:22:12;10.07;;;2.08;;
52730;SDS011;38624;53.242;6.974;2023-12-20T12:24:40;14.32;;;2.15;;
52730;SDS011;38624;53.242;6.974;2023-12-20T12:27:07;15.70;;;2.50;;
52730;SDS011;38624;53.242;6.974;2023-12-20T12:29:33;14.68;;;2.78;;
52730;SDS011;38624;53.242;6.974;2023-12-20T12:32:00;11.40;;;2.10;;
52730;SDS011;38624;53.242;6.974;2023-12-20T12:34:29;9.00;;;1.77;;
52730;SDS011;38624;53.242;6.974;2023-12-20T12:36:55;14.07;;;2.75;;
52730;SDS011;38624;53.242;6.974;2023-12-20T12:39:23;20.35;;;2.63;;
52730;SDS011;38624;53.242;6.974;2023-12-20T12:41:50;10.65;;;2.65;;
52730;SDS011;38624;53.242;6.974;2023-12-20T12:44:16;16.92;;;2.45;;
52730;SDS011;38624;53.242;6.974;2023-12-20T12:46:43;10.65;;;1.92;;
52730;SDS011;38624;53.242;6.974;2023-12-20T12:49:12;16.05;;;2.40;;
52730;SDS011;38624;53.242;6.974;2023-12-20T12:51:38;4.95;;;2.03;;
52730;SDS011;38624;53.242;6.974;2023-12-20T12:54:04;8.87;;;1.93;;
52730;SDS011;38624;53.242;6.974;2023-12-20T12:56:30;10.48;;;2.10;;
52730;SDS011;38624;53.242;6.974;2023-12-20T12:58:56;19.57;;;2.97;;
52730;SDS011;38624;53.242;6.974;2023-12-20T13:01:22;12.45;;;1.85;;
52730;SDS011;38624;53.242;6.974;2023-12-20T13:03:47;10.18;;;2.10;;
52730;SDS011;38624;53.242;6.974;2023-12-20T13:06:13;17.97;;;2.37;;
52730;SDS011;38624;53.242;6.974;2023-12-20T13:08:39;11.73;;;2.55;;
52730;SDS011;38624;53.242;6.974;2023-12-20T13:11:05;15.52;;;3.30;;
52730;SDS011;38624;53.242;6.974;2023-12-20T13:13:31;13.43;;;2.80;;
52730;SDS011;38624;53.242;6.974;2023-12-20T13:15:57;13.13;;;2.05;;
52730;SDS011;38624;53.242;6.974;2023-12-20T13:18:22;10.75;;;1.67;;
52730;SDS011;38624;53.242;6.974;2023-12-20T13:20:48;11.30;;;2.42;;
52730;SDS011;38624;53.242;6.974;2023-12-20T13:23:14;12.93;;;2.08;;
52730;SDS011;38624;53.242;6.974;2023-12-20T13:25:51;17.93;;;2.80;;
52730;SDS011;38624;53.242;6.974;2023-12-20T13:28:17;11.65;;;2.08;;
52730;SDS011;38624;53.242;6.974;2023-12-20T13:30:45;14.90;;;2.20;;
52730;SDS011;38624;53.242;6.974;2023-12-20T13:33:11;11.70;;;2.13;;
52730;SDS011;38624;53.242;6.974;2023-12-20T13:35:37;16.98;;;2.75;;
52730;SDS011;38624;53.242;6.974;2023-12-20T13:38:03;15.23;;;2.65;;
52730;SDS011;38624;53.242;6.974;2023-12-20T13:40:28;12.82;;;2.17;;
52730;SDS011;38624;53.242;6.974;2023-12-20T13:42:54;11.60;;;2.35;;
52730;SDS011;38624;53.242;6.974;2023-12-20T13:45:20;9.90;;;2.08;;
52730;SDS011;38624;53.242;6.974;2023-12-20T13:47:46;6.72;;;1.38;;
52730;SDS011;38624;53.242;6.974;2023-12-20T13:50:11;6.32;;;1.52;;
52730;SDS011;38624;53.242;6.974;2023-12-20T13:52:37;9.57;;;1.70;;
52730;SDS011;38624;53.242;6.974;2023-12-20T13:55:03;17.55;;;2.20;;
52730;SDS011;38624;53.242;6.974;2023-12-20T13:57:32;10.98;;;2.15;;
52730;SDS011;38624;53.242;6.974;2023-12-20T13:59:58;14.23;;;2.38;;
52730;SDS011;38624;53.242;6.974;2023-12-20T14:02:24;15.98;;;2.67;;
52730;SDS011;38624;53.242;6.974;2023-12-20T14:04:52;13.65;;;2.38;;
52730;SDS011;38624;53.242;6.974;2023-12-20T14:07:17;12.38;;;1.95;;
52730;SDS011;38624;53.242;6.974;2023-12-20T14:09:43;10.65;;;1.73;;
52730;SDS011;38624;53.242;6.974;2023-12-20T14:12:13;9.95;;;1.98;;
52730;SDS011;38624;53.242;6.974;2023-12-20T14:14:39;17.67;;;2.25;;
52730;SDS011;38624;53.242;6.974;2023-12-20T14:17:05;5.93;;;1.42;;
52730;SDS011;38624;53.242;6.974;2023-12-20T14:19:34;11.90;;;2.25;;
52730;SDS011;38624;53.242;6.974;2023-12-20T14:22:00;10.35;;;1.95;;
52730;SDS011;38624;53.242;6.974;2023-12-20T14:24:27;9.32;;;2.22;;
52730;SDS011;38624;53.242;6.974;2023-12-20T14:26:53;10.63;;;2.15;;
52730;SDS011;38624;53.242;6.974;2023-12-20T14:29:18;11.25;;;1.95;;
52730;SDS011;38624;53.242;6.974;2023-12-20T14:31:48;9.60;;;2.17;;
52730;SDS011;38624;53.242;6.974;2023-12-20T14:34:14;17.65;;;2.13;;
52730;SDS011;38624;53.242;6.974;2023-12-20T14:36:40;11.63;;;2.10;;
52730;SDS011;38624;53.242;6.974;2023-12-20T14:39:07;12.75;;;2.15;;
52730;SDS011;38624;53.242;6.974;2023-12-20T14:41:33;7.20;;;1.73;;
52730;SDS011;38624;53.242;6.974;2023-12-20T14:43:59;9.32;;;1.80;;
52730;SDS011;38624;53.242;6.974;2023-12-20T14:46:25;8.70;;;1.70;;
52730;SDS011;38624;53.242;6.974;2023-12-20T14:48:51;7.15;;;1.40;;
52730;SDS011;38624;53.242;6.974;2023-12-20T14:51:17;8.50;;;1.60;;